Time;durP1;ratioP1;P1;durP2;ratioP2;P2;SDS_P1;SDS_P2;PMS_P1;PMS_P2;Temp;Humidity;BMP_temperature;BMP_pressure;BME280_temperature;BME280_humidity;BME280_pressure;Samples;Min_cycle;Max_cycle;Signal;HPM_P1;HPM_P2
2023/02/02 00:00:22;;;;;;;10.23;5.08;;;;;;;2.07;92.44;99285.22;1605922;88;21177;-64
2023/02/02 00:02:51;;;;;;;11.20;4.85;;;;;;;2.05;92.55;99279.14;1626772;87;21270;-66
2023/02/02 00:05:28;;;;;;;11.45;5.00;;;;;;;2.04;92.71;99275.27;1615482;88;21178;-64
2023/02/02 00:07:59;;;;;;;9.00;4.60;;;;;;;2.04;92.85;99277.97;1615670;88;21590;-66
2023/02/02 00:10:30;;;;;;;13.98;4.95;;;;;;;2.06;92.95;99278.64;1628506;85;21187;-66
2023/02/02 00:13:00;;;;;;;12.88;4.75;;;;;;;2.05;93.01;99277.80;1658603;85;21178;-65
2023/02/02 00:15:30;;;;;;;10.35;4.40;;;;;;;2.07;93.10;99274.92;1658268;85;21166;-65
2023/02/02 00:18:00;;;;;;;10.43;4.50;;;;;;;2.08;93.11;99276.61;1658258;85;21621;-65
2023/02/02 00:20:30;;;;;;;11.57;4.40;;;;;;;2.07;93.11;99278.47;1658167;85;21182;-64
2023/02/02 00:22:59;;;;;;;10.72;4.40;;;;;;;2.07;93.10;99287.08;1658029;85;21210;-65
2023/02/02 00:25:32;;;;;;;16.32;4.58;;;;;;;2.05;93.13;99274.25;1658050;85;21170;-65
2023/02/02 00:28:03;;;;;;;10.05;3.98;;;;;;;2.05;93.23;99273.74;1644902;86;21167;-64
2023/02/02 00:30:35;;;;;;;11.35;4.40;;;;;;;2.07;93.29;99271.72;1658105;85;21575;-64
2023/02/02 00:33:08;;;;;;;10.10;4.53;;;;;;;2.06;93.33;99270.53;1658242;85;21151;-64
2023/02/02 00:35:40;;;;;;;12.03;4.92;;;;;;;2.06;93.43;99266.48;1658207;85;21143;-64
2023/02/02 00:38:11;;;;;;;15.13;5.33;;;;;;;2.06;93.47;99267.33;1645211;86;21218;-64
2023/02/02 00:40:42;;;;;;;10.85;4.60;;;;;;;2.07;93.41;99262.77;1644931;86;21175;-65
2023/02/02 00:43:12;;;;;;;15.65;5.37;;;;;;;2.05;93.38;99265.64;1658043;85;21190;-65
2023/02/02 00:45:42;;;;;;;13.68;4.62;;;;;;;2.03;93.31;99269.02;1658062;85;21177;-65
2023/02/02 00:48:12;;;;;;;13.38;4.55;;;;;;;2.02;93.27;99258.38;1658139;85;21182;-63
2023/02/02 00:50:42;;;;;;;12.63;4.75;;;;;;;2.01;93.35;99258.89;1658037;85;21258;-64
2023/02/02 00:53:13;;;;;;;14.55;4.80;;;;;;;2.01;93.31;99258.05;1658037;85;21627;-65
2023/02/02 00:55:44;;;;;;;10.55;4.47;;;;;;;2.01;93.31;99266.15;1658089;85;21139;-64
2023/02/02 00:58:15;;;;;;;10.35;4.33;;;;;;;1.99;93.29;99254.16;1658226;85;21143;-65
2023/02/02 01:00:45;;;;;;;11.25;4.92;;;;;;;1.99;93.25;99260.92;1658109;86;21147;-64
2023/02/02 01:03:16;;;;;;;16.70;4.85;;;;;;;2.01;93.28;99258.05;1659738;85;21195;-64
2023/02/02 01:05:48;;;;;;;11.38;4.35;;;;;;;2.00;93.30;99255.85;1679627;84;21560;-63
2023/02/02 01:08:20;;;;;;;12.30;4.58;;;;;;;2.02;93.25;99261.93;1679744;84;21143;-64
2023/02/02 01:10:50;;;;;;;11.68;4.33;;;;;;;2.01;93.22;99264.30;1679563;85;21633;-65
2023/02/02 01:13:22;;;;;;;10.48;3.95;;;;;;;2.01;93.10;99259.40;1679588;84;21119;-62
2023/02/02 01:15:59;;;;;;;9.58;4.47;;;;;;;2.01;93.15;99262.09;1680024;85;21115;-64
2023/02/02 01:18:28;;;;;;;10.20;4.53;;;;;;;2.02;93.20;99264.63;1639732;87;21290;-64
2023/02/02 01:21:05;;;;;;;11.60;4.75;;;;;;;2.04;93.19;99259.90;1651191;85;21662;-61
2023/02/02 01:23:37;;;;;;;14.80;4.85;;;;;;;2.05;93.21;99259.39;1681232;84;21338;-62
2023/02/02 01:26:09;;;;;;;11.93;4.62;;;;;;;2.04;93.01;99261.25;1659011;85;21174;-61
2023/02/02 01:28:38;;;;;;;12.40;4.58;;;;;;;2.03;92.96;99255.52;1651165;85;21175;-63
2023/02/02 01:31:12;;;;;;;10.80;4.25;;;;;;;2.04;92.94;99256.35;1623518;87;21579;-64
2023/02/02 01:33:42;;;;;;;12.47;4.75;;;;;;;2.03;92.97;99256.86;1679931;85;21155;-62
2023/02/02 01:36:16;;;;;;;11.65;4.42;;;;;;;2.04;92.88;99254.50;1679738;84;21143;-62
2023/02/02 01:38:46;;;;;;;13.22;4.42;;;;;;;2.05;92.85;99249.42;1658964;85;21283;-62
2023/02/02 01:41:19;;;;;;;11.08;4.62;;;;;;;2.07;92.81;99254.16;1679482;85;21139;-64
2023/02/02 01:43:53;;;;;;;9.73;4.28;;;;;;;2.05;92.68;99250.78;1679721;84;21255;-62
2023/02/02 01:46:27;;;;;;;13.50;4.50;;;;;;;2.04;92.56;99258.55;1678596;84;21147;-62
2023/02/02 01:49:05;;;;;;;13.40;4.70;;;;;;;2.03;92.57;99251.97;1679707;85;21575;-61
2023/02/02 01:51:55;;;;;;;13.18;4.70;;;;;;;2.05;92.54;99259.39;1679290;85;21186;-62
2023/02/02 01:54:33;;;;;;;11.35;4.60;;;;;;;2.03;92.54;99263.61;1679556;85;21186;-63
2023/02/02 01:57:08;;;;;;;12.43;4.80;;;;;;;2.05;92.60;99255.34;1677759;85;21156;-62
2023/02/02 01:59:37;;;;;;;13.32;4.70;;;;;;;2.05;92.50;99261.59;1651410;85;21219;-62
2023/02/02 02:02:08;;;;;;;12.68;4.33;;;;;;;2.02;92.46;99257.88;1651249;85;21151;-63
2023/02/02 02:04:38;;;;;;;11.15;4.53;;;;;;;2.01;92.39;99257.54;1668191;85;21167;-62
2023/02/02 02:07:08;;;;;;;9.98;4.45;;;;;;;2.01;92.37;99260.75;1657815;85;21579;-62
2023/02/02 02:09:38;;;;;;;10.32;4.37;;;;;;;2.00;92.39;99261.25;1657865;85;21183;-62
2023/02/02 02:12:13;;;;;;;14.03;4.45;;;;;;;2.02;92.42;99264.63;1657772;85;21603;-62
2023/02/02 02:18:00;;;;;;;14.95;4.47;;;;;;;2.08;92.33;99269.86;1657925;85;21105;-62
2023/02/02 02:26:32;;;;;;;10.55;4.37;;;;;;;2.02;92.17;99261.93;1707317;82;21565;-62
2023/02/02 02:27:28;;;;;;;13.00;4.90;;;;;;;2.04;92.27;99264.45;1704305;84;21138;-62
2023/02/02 02:30:06;;;;;;;11.95;4.50;;;;;;;2.04;92.22;99263.95;1707282;84;21130;-63
2023/02/02 02:32:42;;;;;;;9.80;4.42;;;;;;;2.07;92.30;99264.11;1707294;84;21158;-62
2023/02/02 02:35:33;;;;;;;12.07;4.58;;;;;;;2.07;92.25;99264.95;1685467;84;21146;-66
2023/02/02 02:38:39;;;;;;;11.63;4.20;;;;;;;2.06;92.09;99260.57;1707045;84;21154;-65
2023/02/02 02:41:17;;;;;;;13.13;4.65;;;;;;;2.05;92.11;99262.94;1685272;84;21221;-63
2023/02/02 02:44:02;;;;;;;10.32;4.75;;;;;;;2.06;92.16;99265.97;1707216;84;21547;-61
2023/02/02 02:46:32;;;;;;;16.02;4.90;;;;;;;2.05;92.10;99263.45;1686618;84;21127;-63
2023/02/02 02:49:01;;;;;;;13.03;4.55;;;;;;;2.04;92.01;99271.21;1707113;84;21566;-63
2023/02/02 02:51:51;;;;;;;14.18;4.65;;;;;;;2.02;92.01;99271.89;1707136;84;21186;-62
2023/02/02 02:54:33;;;;;;;11.45;4.30;;;;;;;2.00;92.02;99270.71;1707243;84;21508;-63
2023/02/02 02:57:28;;;;;;;12.30;4.53;;;;;;;1.99;92.01;99275.78;1707119;84;21146;-62
2023/02/02 03:00:15;;;;;;;17.20;5.45;;;;;;;2.00;92.04;99277.46;1707234;84;21170;-62
2023/02/02 03:03:18;;;;;;;11.78;4.65;;;;;;;1.99;92.03;99282.53;1707490;84;21127;-62
2023/02/02 03:05:55;;;;;;;10.88;4.83;;;;;;;2.00;92.10;99282.86;1707581;84;21108;-64
2023/02/02 03:08:32;;;;;;;13.55;5.20;;;;;;;1.97;92.00;99285.91;1707427;84;21127;-61
2023/02/02 03:11:04;;;;;;;12.88;4.78;;;;;;;1.93;92.02;99277.78;1707167;84;21190;-62
2023/02/02 03:13:34;;;;;;;16.62;5.40;;;;;;;1.93;92.13;99284.52;1707091;82;21119;-62
2023/02/02 03:16:04;;;;;;;12.63;4.92;;;;;;;1.93;92.10;99287.73;1623677;87;21209;-62
2023/02/02 03:18:34;;;;;;;11.57;4.47;;;;;;;1.93;92.17;99283.69;1645043;86;21145;-62
2023/02/02 03:21:04;;;;;;;9.95;4.60;;;;;;;1.94;92.20;99283.52;1643427;86;21213;-62
2023/02/02 03:23:33;;;;;;;11.97;4.65;;;;;;;1.97;92.24;99287.77;1643250;86;21266;-64
2023/02/02 03:26:03;;;;;;;13.65;5.42;;;;;;;1.97;92.27;99284.56;1643228;86;21220;-61
2023/02/02 03:28:33;;;;;;;16.50;5.10;;;;;;;1.99;92.30;99288.44;1643216;86;21153;-63
2023/02/02 03:31:03;;;;;;;11.40;4.83;;;;;;;1.99;92.26;99293.33;1641677;85;21176;-62
2023/02/02 03:33:34;;;;;;;11.70;5.00;;;;;;;1.99;92.22;99291.14;1660067;84;21157;-62
2023/02/02 03:36:05;;;;;;;14.73;5.80;;;;;;;1.98;92.22;99285.40;1714740;83;21589;-63
2023/02/02 03:38:35;;;;;;;14.68;4.80;;;;;;;1.97;92.29;99288.61;1714764;83;21123;-61
2023/02/02 03:41:05;;;;;;;11.68;4.55;;;;;;;1.97;92.26;99289.11;1714999;84;21126;-62
2023/02/02 03:43:35;;;;;;;11.83;4.80;;;;;;;1.99;92.24;99293.84;1714871;84;21209;-63
2023/02/02 03:46:05;;;;;;;13.30;4.80;;;;;;;1.99;92.13;99297.89;1714785;83;21615;-62
2023/02/02 03:48:36;;;;;;;12.58;5.03;;;;;;;1.98;92.15;99290.30;1714809;84;21126;-62
2023/02/02 03:51:11;;;;;;;14.78;5.55;;;;;;;1.97;92.18;99296.71;1714769;84;21593;-63
2023/02/02 03:53:49;;;;;;;11.43;4.65;;;;;;;1.97;92.18;99299.41;1715099;84;21122;-63
2023/02/02 03:56:18;;;;;;;14.70;5.47;;;;;;;1.99;92.28;99298.73;1715012;84;21113;-62
2023/02/02 03:58:50;;;;;;;14.95;4.97;;;;;;;2.01;92.25;99294.01;1714855;84;21569;-64
2023/02/02 04:01:27;;;;;;;13.65;5.15;;;;;;;2.02;92.16;99301.60;1714983;84;21215;-63
2023/02/02 04:03:57;;;;;;;14.10;5.20;;;;;;;2.01;92.10;99297.22;1685213;84;21178;-63
2023/02/02 04:06:27;;;;;;;16.48;5.22;;;;;;;2.02;92.09;99296.20;1714979;84;21158;-62
2023/02/02 04:08:56;;;;;;;14.28;5.58;;;;;;;2.03;92.15;99297.89;1714782;84;21581;-64
2023/02/02 04:11:26;;;;;;;11.73;4.90;;;;;;;2.02;92.12;99297.05;1684699;84;21185;-63
2023/02/02 04:13:57;;;;;;;17.02;5.47;;;;;;;2.01;92.08;99298.06;1715060;83;21123;-62
2023/02/02 04:16:27;;;;;;;14.75;5.37;;;;;;;2.02;92.04;99294.85;1715062;84;21636;-64
2023/02/02 04:18:57;;;;;;;14.93;4.97;;;;;;;2.01;92.01;99295.87;1684133;82;21147;-63
2023/02/02 04:21:26;;;;;;;10.58;5.10;;;;;;;1.99;92.04;99290.63;1707276;84;21182;-62
2023/02/02 04:23:56;;;;;;;13.03;5.58;;;;;;;1.99;92.02;99293.33;1707240;84;21193;-62
2023/02/02 04:26:27;;;;;;;13.55;5.80;;;;;;;2.00;92.08;99296.38;1707204;82;21194;-62
2023/02/02 04:28:57;;;;;;;10.98;4.95;;;;;;;2.02;92.09;99288.94;1707138;84;21186;-61
2023/02/02 04:31:28;;;;;;;15.05;5.33;;;;;;;2.04;92.05;99298.22;1707234;84;21206;-62
2023/02/02 04:34:00;;;;;;;14.60;4.87;;;;;;;2.03;91.95;99298.73;1707480;84;21076;-62
2023/02/02 04:36:29;;;;;;;14.33;5.08;;;;;;;2.02;91.96;99299.74;1685643;84;21142;-63
2023/02/02 04:39:00;;;;;;;11.43;5.08;;;;;;;2.02;91.95;99305.15;1707407;84;21574;-63
2023/02/02 04:41:29;;;;;;;10.28;4.80;;;;;;;2.00;91.84;99307.17;1707484;84;21143;-63
2023/02/02 04:43:59;;;;;;;14.65;5.25;;;;;;;1.99;91.91;99308.70;1707218;84;21150;-63
2023/02/02 04:46:30;;;;;;;14.13;4.58;;;;;;;1.99;91.92;99306.84;1707290;84;21202;-62
2023/02/02 04:49:01;;;;;;;11.83;5.25;;;;;;;2.00;91.90;99313.09;1707430;84;21730;-64
2023/02/02 04:51:32;;;;;;;12.50;4.90;;;;;;;1.99;91.89;99306.84;1707260;82;22055;-64
2023/02/02 04:54:03;;;;;;;13.43;4.83;;;;;;;2.01;91.88;99316.13;1663602;84;21194;-63
2023/02/02 04:56:33;;;;;;;9.55;4.03;;;;;;;2.00;91.80;99313.93;1707418;83;21154;-63
2023/02/02 04:59:04;;;;;;;15.25;5.00;;;;;;;1.98;91.90;99315.11;1707086;84;21170;-64
2023/02/02 05:01:35;;;;;;;14.50;5.10;;;;;;;2.00;91.91;99315.28;1707322;84;21503;-63
2023/02/02 05:04:05;;;;;;;12.55;4.70;;;;;;;1.98;91.81;99313.25;1707128;84;21150;-64
2023/02/02 05:06:35;;;;;;;10.00;4.72;;;;;;;1.98;91.89;99317.81;1685651;84;21135;-64
2023/02/02 05:09:07;;;;;;;14.03;4.95;;;;;;;1.98;91.86;99315.95;1707338;84;21099;-62
2023/02/02 05:11:37;;;;;;;15.53;6.15;;;;;;;1.94;91.80;99317.78;1707191;84;21127;-62
2023/02/02 05:14:09;;;;;;;13.38;5.35;;;;;;;1.93;91.90;99319.64;1707455;84;21123;-62
2023/02/02 05:16:41;;;;;;;12.95;5.08;;;;;;;1.92;91.89;99320.66;1707233;84;21651;-63
2023/02/02 05:19:11;;;;;;;14.05;4.92;;;;;;;1.90;91.85;99321.33;1707446;83;21261;-69
2023/02/02 05:21:44;;;;;;;11.70;5.58;;;;;;;1.91;91.87;99327.06;1707478;83;21202;-64
2023/02/02 05:24:16;;;;;;;11.22;4.92;;;;;;;1.88;91.81;99326.05;1685744;84;21166;-64
2023/02/02 05:26:46;;;;;;;10.93;5.00;;;;;;;1.86;91.84;99328.08;1707230;84;21155;-65
2023/02/02 05:29:16;;;;;;;15.10;6.12;;;;;;;1.84;91.81;99326.89;1707142;84;21123;-64
2023/02/02 05:31:46;;;;;;;11.93;5.62;;;;;;;1.84;91.91;99330.11;1707166;82;21667;-62
2023/02/02 05:34:15;;;;;;;12.13;5.33;;;;;;;1.85;91.97;99326.39;1707195;84;21570;-64
2023/02/02 05:36:46;;;;;;;11.55;5.35;;;;;;;1.82;91.92;99326.22;1685253;84;21135;-63
2023/02/02 05:39:16;;;;;;;11.20;5.33;;;;;;;1.82;91.99;99331.63;1707318;84;21155;-64
2023/02/02 05:41:47;;;;;;;17.02;5.95;;;;;;;1.83;92.07;99333.81;1707405;84;21550;-63
2023/02/02 05:44:17;;;;;;;10.48;5.33;;;;;;;1.81;92.04;99335.84;1707370;84;21127;-63
2023/02/02 05:46:47;;;;;;;14.87;5.55;;;;;;;1.80;92.12;99341.75;1707251;84;21138;-64
2023/02/02 05:49:18;;;;;;;12.88;6.00;;;;;;;1.79;92.10;99337.87;1707262;82;21116;-64
2023/02/02 05:51:51;;;;;;;10.78;5.28;;;;;;;1.76;92.12;99342.25;1707305;82;21186;-63
2023/02/02 05:54:21;;;;;;;14.47;6.62;;;;;;;1.75;92.14;99341.91;1685087;82;21625;-64
2023/02/02 05:56:51;;;;;;;13.43;5.33;;;;;;;1.73;92.17;99338.53;1707311;84;21162;-63
2023/02/02 05:59:24;;;;;;;13.50;5.67;;;;;;;1.71;92.18;99356.25;1707249;84;21091;-63
2023/02/02 06:01:55;;;;;;;12.58;5.83;;;;;;;1.68;92.24;99348.99;1707235;84;21218;-63
2023/02/02 06:04:25;;;;;;;9.63;5.17;;;;;;;1.69;92.42;99352.03;1707171;82;22049;-64
2023/02/02 06:06:54;;;;;;;11.48;5.75;;;;;;;1.69;92.52;99354.73;1707368;84;21216;-64
2023/02/02 06:09:31;;;;;;;14.70;5.97;;;;;;;1.71;92.52;99358.11;1707438;84;21629;-63
2023/02/02 06:12:01;;;;;;;11.90;5.80;;;;;;;1.70;92.63;99360.47;1707549;84;21207;-65
2023/02/02 06:14:31;;;;;;;20.05;6.60;;;;;;;1.71;92.77;99361.66;1707346;84;21143;-65
2023/02/02 06:17:00;;;;;;;14.35;6.42;;;;;;;1.75;92.90;99364.86;1707187;84;21158;-63
2023/02/02 06:19:30;;;;;;;17.60;7.50;;;;;;;1.75;92.95;99363.52;1708972;83;21225;-64
2023/02/02 06:22:00;;;;;;;19.25;7.03;;;;;;;1.78;92.98;99372.63;1692307;83;21154;-64
2023/02/02 06:24:30;;;;;;;14.55;7.00;;;;;;;1.77;93.00;99375.84;1720356;83;21558;-63
2023/02/02 06:27:00;;;;;;;12.90;6.92;;;;;;;1.76;92.97;99370.09;1720325;83;21651;-64
2023/02/02 06:29:30;;;;;;;15.75;6.92;;;;;;;1.77;92.98;99376.34;1720117;83;21629;-64
2023/02/02 06:32:00;;;;;;;14.18;6.25;;;;;;;1.77;93.05;99379.05;1720298;83;21141;-64
2023/02/02 06:34:31;;;;;;;14.68;6.65;;;;;;;1.79;93.08;99383.27;1720337;83;21174;-64
2023/02/02 06:37:00;;;;;;;15.60;7.15;;;;;;;1.78;92.94;99380.23;1720300;83;21102;-65
2023/02/02 06:39:30;;;;;;;16.12;7.10;;;;;;;1.79;92.97;99387.83;1720251;83;21130;-64
2023/02/02 06:42:01;;;;;;;17.27;7.37;;;;;;;1.81;92.93;99393.39;1720090;82;21141;-64
2023/02/02 06:44:33;;;;;;;21.17;9.50;;;;;;;1.82;92.93;99389.69;1717081;82;21161;-64
2023/02/02 06:47:03;;;;;;;24.70;11.68;;;;;;;1.85;92.94;99387.16;1720086;83;21094;-64
2023/02/02 06:49:33;;;;;;;21.15;8.93;;;;;;;1.88;92.97;99390.37;1720043;82;21158;-65
2023/02/02 06:52:02;;;;;;;18.37;8.95;;;;;;;1.92;92.87;99392.23;1720114;83;21162;-67
2023/02/02 06:54:32;;;;;;;23.22;10.15;;;;;;;1.94;92.84;99390.20;1692308;82;21193;-65
2023/02/02 06:57:02;;;;;;;21.65;8.55;;;;;;;1.99;92.82;99397.33;1720167;83;21154;-66
2023/02/02 06:59:32;;;;;;;23.83;10.70;;;;;;;2.01;92.76;99389.06;1720235;83;21189;-64
2023/02/02 07:02:01;;;;;;;19.77;8.58;;;;;;;2.03;92.65;99390.58;1692361;83;21680;-66
2023/02/02 07:04:32;;;;;;;74.10;19.15;;;;;;;2.05;92.55;99402.06;1720066;83;21126;-65
2023/02/02 07:07:03;;;;;;;89.97;26.35;;;;;;;2.08;92.57;99400.38;1720042;83;21561;-65
2023/02/02 07:09:34;;;;;;;59.95;18.35;;;;;;;2.13;92.56;99395.31;1720168;83;21577;-66
2023/02/02 07:12:04;;;;;;;30.88;10.28;;;;;;;2.16;92.36;99401.73;1720372;83;21718;-65
2023/02/02 07:14:34;;;;;;;74.20;18.95;;;;;;;2.18;92.25;99400.20;1720212;82;21118;-65
2023/02/02 07:17:05;;;;;;;28.00;10.72;;;;;;;2.21;92.19;99403.92;1720393;82;21233;-66
2023/02/02 07:19:35;;;;;;;19.98;9.58;;;;;;;2.25;92.10;99407.13;1720132;82;21200;-65
2023/02/02 07:22:05;;;;;;;13.72;7.08;;;;;;;2.27;91.92;99403.76;1718003;83;21106;-65
2023/02/02 07:24:34;;;;;;;14.55;7.08;;;;;;;2.29;91.77;99401.22;1717803;83;21158;-64
2023/02/02 07:27:05;;;;;;;15.75;7.67;;;;;;;2.29;91.53;99405.28;1717799;83;21629;-64
2023/02/02 07:29:34;;;;;;;40.33;14.58;;;;;;;2.29;91.36;99403.08;1690470;83;21126;-66
2023/02/02 07:32:06;;;;;;;33.18;13.43;;;;;;;2.31;91.34;99404.59;1717756;82;21082;-66
2023/02/02 07:34:41;;;;;;;34.95;10.82;;;;;;;2.34;91.28;99402.06;1690663;83;21019;-66
2023/02/02 07:37:11;;;;;;;53.98;18.52;;;;;;;2.36;91.25;99406.29;1717806;82;21063;-65
2023/02/02 07:39:42;;;;;;;23.40;9.55;;;;;;;2.41;91.22;99401.22;1717964;83;21475;-66
2023/02/02 07:42:13;;;;;;;33.40;11.85;;;;;;;2.46;91.12;99404.25;1718197;83;21458;-66
2023/02/02 07:44:43;;;;;;;14.25;7.70;;;;;;;2.49;90.91;99408.47;1717989;82;21043;-68
2023/02/02 07:47:12;;;;;;;16.62;7.70;;;;;;;2.51;90.57;99400.53;1717920;83;21033;-66
2023/02/02 07:49:45;;;;;;;16.62;8.68;;;;;;;2.50;90.44;99400.70;1690119;83;21431;-66
2023/02/02 07:52:15;;;;;;;23.20;9.53;;;;;;;2.53;90.38;99404.41;1717897;83;21520;-65
2023/02/02 07:54:45;;;;;;;22.40;10.60;;;;;;;2.57;90.34;99399.00;1717798;83;21059;-66
2023/02/02 07:57:17;;;;;;;26.73;11.55;;;;;;;2.61;90.22;99398.19;1690383;83;21034;-67
2023/02/02 07:59:49;;;;;;;20.52;10.08;;;;;;;2.63;89.97;99402.91;1689696;83;21035;-65
2023/02/02 08:02:18;;;;;;;18.02;8.65;;;;;;;2.66;89.96;99409.33;1717741;83;21074;-65
2023/02/02 08:04:48;;;;;;;21.80;9.85;;;;;;;2.71;89.85;99409.15;1717757;83;21026;-64
2023/02/02 08:07:20;;;;;;;21.87;9.45;;;;;;;2.75;89.66;99411.84;1718090;82;21080;-66
2023/02/02 08:09:49;;;;;;;20.00;8.08;;;;;;;2.92;90.02;99407.75;1717885;83;21050;-65
2023/02/02 08:12:23;;;;;;;39.15;12.47;;;;;;;3.21;89.84;99409.86;1717793;83;21050;-66
2023/02/02 08:14:55;;;;;;;20.80;8.90;;;;;;;3.41;89.17;99412.52;1717950;83;21078;-64
2023/02/02 08:17:25;;;;;;;17.17;8.13;;;;;;;3.57;88.65;99422.42;1717863;83;21496;-66
2023/02/02 08:19:54;;;;;;;16.20;7.40;;;;;;;3.69;88.07;99420.50;1717763;83;21058;-65
2023/02/02 08:22:27;;;;;;;20.32;8.98;;;;;;;3.77;87.30;99419.61;1718049;83;21023;-66
2023/02/02 08:24:56;;;;;;;17.00;7.28;;;;;;;3.80;86.53;99422.80;1717766;83;21071;-64
2023/02/02 08:27:26;;;;;;;13.72;6.83;;;;;;;3.79;85.86;99421.63;1690067;83;21062;-65
2023/02/02 08:29:57;;;;;;;20.52;9.25;;;;;;;3.77;85.48;99423.67;1717994;83;21056;-65
2023/02/02 08:32:48;;;;;;;16.65;7.78;;;;;;;3.77;85.27;99428.58;1717717;83;21027;-64
2023/02/02 08:35:18;;;;;;;30.00;8.88;;;;;;;3.78;85.17;99424.00;1734821;83;21078;-64
2023/02/02 08:37:48;;;;;;;20.37;7.92;;;;;;;3.74;84.63;99424.02;1734893;83;21038;-65
2023/02/02 08:40:19;;;;;;;29.37;10.00;;;;;;;3.69;84.52;99421.00;1734940;83;21454;-66
2023/02/02 08:42:54;;;;;;;30.60;10.58;;;;;;;3.67;84.36;99419.83;1734888;83;21058;-65
2023/02/02 08:45:24;;;;;;;20.85;8.18;;;;;;;3.69;84.49;99424.56;1734858;83;21042;-65
2023/02/02 08:47:56;;;;;;;19.87;7.85;;;;;;;3.72;84.46;99431.48;1704186;83;21099;-65
2023/02/02 08:50:27;;;;;;;13.13;6.75;;;;;;;3.75;84.41;99429.77;1728754;83;21542;-68
2023/02/02 08:52:56;;;;;;;15.25;6.60;;;;;;;3.78;84.38;99420.78;1727961;82;21035;-66
2023/02/02 08:55:25;;;;;;;10.75;6.35;;;;;;;3.84;84.32;99421.93;1708916;82;21450;-66
2023/02/02 08:57:55;;;;;;;17.55;7.70;;;;;;;3.87;84.05;99428.34;1705808;84;21042;-64
2023/02/02 09:00:25;;;;;;;11.30;6.85;;;;;;;3.86;83.33;99425.81;1719432;83;21052;-65
2023/02/02 09:02:57;;;;;;;10.15;5.62;;;;;;;3.83;83.62;99433.79;1691858;83;21046;-67
2023/02/02 09:05:31;;;;;;;16.52;7.20;;;;;;;4.15;88.05;99430.06;1717657;83;21049;-66
2023/02/02 09:08:02;;;;;;;11.63;6.12;;;;;;;4.79;89.74;99422.42;1717755;83;21080;-65
2023/02/02 09:10:34;;;;;;;9.63;5.53;;;;;;;5.17;86.90;99421.84;1735376;82;21466;-66
2023/02/02 09:13:05;;;;;;;10.95;6.80;;;;;;;5.39;85.67;99419.58;1710608;82;21074;-66
2023/02/02 09:15:35;;;;;;;16.20;7.50;;;;;;;5.60;84.28;99417.95;1736332;82;21519;-65
2023/02/02 09:18:05;;;;;;;16.23;7.72;;;;;;;5.87;83.00;99415.08;1736057;82;21026;-68
2023/02/02 09:20:35;;;;;;;20.90;7.10;;;;;;;6.12;81.57;99418.30;1735944;82;21056;-69
2023/02/02 09:23:04;;;;;;;41.80;13.43;;;;;;;6.30;79.33;99418.70;1736314;82;21544;-64
2023/02/02 09:25:34;;;;;;;30.72;11.53;;;;;;;6.36;77.13;99416.05;1703636;84;21031;-66
2023/02/02 09:28:04;;;;;;;68.33;20.77;;;;;;;6.10;75.64;99414.42;1702242;84;21466;-64
2023/02/02 09:30:38;;;;;;;70.42;20.05;;;;;;;5.77;75.39;99415.86;1700903;84;21113;-68
2023/02/02 09:33:08;;;;;;;48.15;14.00;;;;;;;5.51;75.91;99420.45;1671035;86;21086;-67
2023/02/02 09:35:38;;;;;;;26.62;11.80;;;;;;;5.30;76.27;99410.36;1714775;83;21053;-66
2023/02/02 09:38:08;;;;;;;11.78;6.95;;;;;;;5.13;76.67;99423.77;1714794;84;21475;-66
2023/02/02 09:40:39;;;;;;;11.22;6.37;;;;;;;4.94;76.70;99415.14;1714817;84;21099;-68
2023/02/02 09:43:47;;;;;;;11.53;6.62;;;;;;;4.73;77.02;99417.22;1714753;84;21055;-66
2023/02/02 09:46:36;;;;;;;12.40;7.40;;;;;;;4.58;77.67;99419.57;1714900;84;21451;-65
2023/02/02 09:49:10;;;;;;;11.70;6.80;;;;;;;4.46;78.48;99425.41;1714607;84;21690;-65
2023/02/02 09:51:54;;;;;;;12.88;7.10;;;;;;;4.36;78.97;99433.45;1714598;84;21086;-66
2023/02/02 09:54:33;;;;;;;69.10;19.40;;;;;;;4.26;79.32;99426.92;1714876;84;21117;-66
2023/02/02 09:57:19;;;;;;;54.48;21.75;;;;;;;4.16;79.62;99422.26;1714788;82;21501;-66
2023/02/02 09:59:50;;;;;;;25.48;10.53;;;;;;;4.13;80.13;99431.59;1710269;84;21031;-66
2023/02/02 10:02:33;;;;;;;16.80;8.53;;;;;;;4.10;80.49;99422.47;1659681;85;21524;-65
2023/02/02 10:05:16;;;;;;;35.45;11.88;;;;;;;4.08;80.73;99425.03;1638279;85;21073;-65
2023/02/02 10:07:49;;;;;;;38.75;17.27;;;;;;;4.04;81.07;99425.05;1686047;85;21075;-67
2023/02/02 10:10:28;;;;;;;36.28;17.77;;;;;;;3.95;80.82;99428.33;1685979;84;21087;-65
2023/02/02 10:13:05;;;;;;;24.02;13.28;;;;;;;3.90;81.34;99427.15;1686126;85;21103;-65
2023/02/02 10:15:47;;;;;;;47.50;19.27;;;;;;;3.86;81.45;99425.30;1685953;85;21075;-65
2023/02/02 10:18:48;;;;;;;64.15;24.37;;;;;;;3.82;81.73;99418.05;1685947;85;21063;-64
2023/02/02 10:21:48;;;;;;;40.10;19.87;;;;;;;3.81;81.97;99427.70;1686202;85;21095;-64
2023/02/02 10:24:24;;;;;;;37.55;18.77;;;;;;;3.82;82.17;99426.69;1681053;84;21095;-63
2023/02/02 10:27:05;;;;;;;51.02;20.60;;;;;;;3.80;82.16;99424.66;1639817;85;21118;-64
2023/02/02 10:30:00;;;;;;;20.92;9.63;;;;;;;3.79;82.41;99425.69;1686097;85;21119;-64
2023/02/02 10:32:56;;;;;;;24.05;12.60;;;;;;;3.80;82.62;99420.59;1686161;84;21463;-65
2023/02/02 10:35:59;;;;;;;13.45;7.55;;;;;;;3.85;82.75;99424.97;1670182;84;21063;-63
2023/02/02 10:39:06;;;;;;;15.03;8.65;;;;;;;3.88;82.85;99419.70;1573689;90;21073;-65
2023/02/02 10:42:15;;;;;;;25.60;10.75;;;;;;;3.92;82.57;99415.14;1582176;90;21140;-66
2023/02/02 10:45:17;;;;;;;19.87;9.33;;;;;;;3.98;82.68;99414.93;1538393;93;21078;-64
2023/02/02 10:47:53;;;;;;;25.32;10.88;;;;;;;4.06;82.50;99419.78;1546963;93;21074;-64
2023/02/02 10:50:26;;;;;;;24.43;8.50;;;;;;;4.12;82.19;99417.70;1546685;93;21118;-63
2023/02/02 10:53:01;;;;;;;23.40;8.25;;;;;;;4.20;81.88;99426.80;1546720;93;21092;-62
2023/02/02 10:55:36;;;;;;;19.62;8.18;;;;;;;4.23;81.28;99425.09;1546718;93;21105;-64
2023/02/02 10:58:38;;;;;;;17.35;8.13;;;;;;;4.24;80.78;99423.55;1546704;93;21070;-63
2023/02/02 11:01:10;;;;;;;15.85;6.60;;;;;;;4.26;80.26;99420.66;1564066;91;21704;-65
2023/02/02 11:06:48;;;;;;;18.62;8.23;;;;;;;4.23;79.55;99405.59;1570904;91;21507;-63
2023/02/02 11:09:14;;;;;;;43.45;9.68;;;;;;;4.27;79.39;99415.05;1569798;91;21187;-62
2023/02/02 11:11:51;;;;;;;15.25;6.15;;;;;;;4.33;79.29;99414.84;1570209;91;21194;-63
2023/02/02 11:14:36;;;;;;;32.35;11.18;;;;;;;4.37;79.12;99417.52;1570448;91;21208;-63
2023/02/02 11:17:20;;;;;;;24.50;8.15;;;;;;;4.43;79.04;99423.56;1541462;93;21187;-64
2023/02/02 11:19:51;;;;;;;19.92;8.40;;;;;;;4.53;79.17;99420.60;1570378;91;21230;-64
2023/02/02 11:22:37;;;;;;;51.53;21.55;;;;;;;4.61;78.40;99418.69;1622005;84;21035;-64
2023/02/02 11:25:24;;;;;;;29.72;11.95;;;;;;;4.65;77.94;99425.44;1696626;84;21091;-62
2023/02/02 11:27:54;;;;;;;41.23;15.05;;;;;;;4.68;77.33;99423.71;1689452;84;21087;-64
2023/02/02 11:30:36;;;;;;;138.85;62.75;;;;;;;4.67;77.00;99424.73;1697042;84;21047;-64
2023/02/02 11:33:33;;;;;;;142.65;45.20;;;;;;;4.65;76.65;99420.52;1696679;84;21027;-64
2023/02/02 11:36:18;;;;;;;51.98;20.75;;;;;;;4.62;76.72;99420.38;1702640;84;21064;-62
2023/02/02 11:38:49;;;;;;;19.55;8.43;;;;;;;4.62;76.81;99416.31;1701179;84;21037;-64
2023/02/02 11:41:20;;;;;;;19.55;6.50;;;;;;;4.66;76.66;99412.20;1680740;84;21053;-64
2023/02/02 11:43:52;;;;;;;14.78;7.28;;;;;;;4.69;76.43;99410.48;1703024;84;21522;-63
2023/02/02 11:46:33;;;;;;;12.47;6.50;;;;;;;4.71;76.19;99404.35;1702573;84;21449;-65
2023/02/02 11:49:08;;;;;;;14.68;6.22;;;;;;;4.71;75.73;99409.78;1702906;84;21063;-64
2023/02/02 11:51:39;;;;;;;13.55;5.30;;;;;;;4.71;75.71;99411.65;1680382;84;21121;-64
2023/02/02 11:54:19;;;;;;;25.40;7.10;;;;;;;4.71;75.37;99403.52;1702799;83;21040;-65
2023/02/02 11:56:51;;;;;;;19.40;6.35;;;;;;;4.69;75.13;99410.48;1702704;84;20997;-63
2023/02/02 11:59:42;;;;;;;20.40;5.65;;;;;;;4.70;75.09;99412.16;1702865;83;21139;-63
2023/02/02 12:02:30;;;;;;;20.62;6.65;;;;;;;4.71;74.94;99407.58;1677702;84;21103;-63
2023/02/02 12:05:22;;;;;;;9.48;5.22;;;;;;;4.68;74.41;99403.36;1677529;85;21578;-64
2023/02/02 12:07:53;;;;;;;21.00;5.87;;;;;;;4.67;74.51;99412.53;1677658;85;21463;-64
2023/02/02 12:10:34;;;;;;;13.78;5.58;;;;;;;4.66;74.49;99416.27;1677841;85;21056;-64
2023/02/02 12:13:11;;;;;;;21.23;7.55;;;;;;;4.69;74.63;99417.77;1677936;85;21087;-63